createdAt,value
2022-11-29T00:01:37.019Z,101178.84
2022-11-29T00:04:05.610Z,101185.00
2022-11-29T00:06:35.254Z,101180.59
2022-11-29T00:09:07.290Z,101182.34
2022-11-29T00:11:55.123Z,101183.25
2022-11-29T00:14:24.207Z,101176.19
2022-11-29T00:16:53.645Z,101179.72
2022-11-29T00:19:22.053Z,101177.97
2022-11-29T00:21:50.026Z,101179.69
2022-11-29T00:24:19.794Z,101170.91
2022-11-29T00:26:48.014Z,101170.91
2022-11-29T00:29:16.161Z,101171.78
2022-11-29T00:31:44.999Z,101176.19
2022-11-29T00:34:13.531Z,101173.53
2022-11-29T00:36:41.925Z,101171.75
2022-11-29T00:39:11.721Z,101174.41
2022-11-29T00:41:41.463Z,101171.78
2022-11-29T00:44:12.831Z,101177.91
2022-11-29T00:46:43.350Z,101173.53
2022-11-29T00:49:11.373Z,101178.81
2022-11-29T00:51:39.488Z,101177.03
2022-11-29T00:54:07.530Z,101182.31
2022-11-29T00:56:35.470Z,101174.41
2022-11-29T00:59:04.842Z,101180.56
2022-11-29T01:01:32.906Z,101171.75
2022-11-29T01:04:01.456Z,101175.25
2022-11-29T01:06:29.691Z,101175.28
2022-11-29T01:08:57.683Z,101181.44
2022-11-29T01:11:27.271Z,101188.47
2022-11-29T01:13:57.680Z,101178.81
2022-11-29T01:16:27.654Z,101184.94
2022-11-29T01:18:55.685Z,101177.91
2022-11-29T01:21:25.483Z,101177.03
2022-11-29T01:23:54.736Z,101183.19
2022-11-29T01:26:25.340Z,101188.47
2022-11-29T01:28:55.862Z,101184.09
2022-11-29T01:31:26.004Z,101181.47
2022-11-29T01:33:56.084Z,101184.97
2022-11-29T01:36:25.276Z,101184.97
2022-11-29T01:38:53.534Z,101180.53
2022-11-29T01:41:23.329Z,101192.88
2022-11-29T01:44:01.411Z,101185.81
2022-11-29T01:46:31.389Z,101193.72
2022-11-29T01:49:04.746Z,101194.59
2022-11-29T01:51:35.320Z,101190.22
2022-11-29T01:54:03.823Z,101195.50
2022-11-29T01:56:34.474Z,101187.59
2022-11-29T01:59:04.209Z,101197.25
2022-11-29T02:01:34.704Z,101187.59
2022-11-29T02:04:04.842Z,101194.59
2022-11-29T02:06:34.078Z,101194.66
2022-11-29T02:09:02.210Z,101200.78
2022-11-29T02:11:53.170Z,101196.38
2022-11-29T02:14:38.098Z,101198.16
2022-11-29T02:17:16.484Z,101200.78
2022-11-29T02:20:08.536Z,101194.59
2022-11-29T02:22:42.191Z,101213.13
2022-11-29T02:25:41.092Z,101206.09
2022-11-29T02:28:41.655Z,101213.13
2022-11-29T02:31:34.915Z,101206.94
2022-11-29T02:34:27.159Z,101213.97
2022-11-29T02:37:13.885Z,101205.16
2022-11-29T02:39:58.369Z,101208.66
2022-11-29T02:42:56.176Z,101208.66
2022-11-29T02:45:59.652Z,101212.16
2022-11-29T02:48:43.775Z,101209.53
2022-11-29T02:51:21.946Z,101217.47
2022-11-29T02:53:57.442Z,101211.31
2022-11-29T02:56:32.858Z,101219.19
2022-11-29T02:59:06.681Z,101220.13
2022-11-29T03:01:41.427Z,101216.56
2022-11-29T03:04:19.789Z,101217.41
2022-11-29T03:06:56.506Z,101223.59
2022-11-29T03:09:33.472Z,101229.75
2022-11-29T03:12:10.102Z,101228.88
2022-11-29T03:14:55.377Z,101229.75
2022-11-29T03:17:33.127Z,101235.94
2022-11-29T03:20:30.084Z,101235.88
2022-11-29T03:23:14.829Z,101235.94
2022-11-29T03:25:47.746Z,101240.31
2022-11-29T03:28:20.521Z,101238.56
2022-11-29T03:30:53.781Z,101242.94
2022-11-29T03:33:29.320Z,101239.41
2022-11-29T03:38:46.551Z,101249.13
2022-11-29T03:41:21.316Z,101250.00
2022-11-29T03:43:57.509Z,101249.13
2022-11-29T03:46:33.004Z,101252.63
2022-11-29T03:49:04.480Z,101245.56
2022-11-29T03:51:45.365Z,101249.13
2022-11-29T03:54:22.383Z,101244.72
2022-11-29T03:56:51.029Z,101242.06
2022-11-29T03:59:36.992Z,101248.25
2022-11-29T04:02:44.655Z,101250.88
2022-11-29T04:05:37.558Z,101252.63
2022-11-29T04:08:40.741Z,101249.97
2022-11-29T04:11:54.832Z,101262.34
2022-11-29T04:14:34.900Z,101263.19
2022-11-29T04:17:35.685Z,101258.78
2022-11-29T04:20:39.174Z,101263.19
2022-11-29T04:23:33.696Z,101267.59
2022-11-29T04:26:34.826Z,101273.75
2022-11-29T04:29:16.466Z,101278.16
2022-11-29T04:32:04.270Z,101283.44
2022-11-29T04:35:14.592Z,101275.53
2022-11-29T04:38:05.741Z,101291.34
2022-11-29T04:40:52.887Z,101289.56
2022-11-29T04:43:43.230Z,101293.13
2022-11-29T04:46:38.149Z,101293.06
2022-11-29T04:49:22.121Z,101293.97
2022-11-29T04:52:09.217Z,101296.63
2022-11-29T04:54:44.300Z,101300.13
2022-11-29T04:57:23.358Z,101288.59
2022-11-29T05:00:01.073Z,101301.81
2022-11-29T05:02:35.904Z,101312.44
2022-11-29T05:05:15.183Z,101310.72
2022-11-29T05:07:52.583Z,101309.88
2022-11-29T05:10:30.623Z,101313.47
2022-11-29T05:13:07.105Z,101318.78
2022-11-29T05:16:04.522Z,101322.22
2022-11-29T05:18:58.901Z,101311.78
2022-11-29T05:21:39.106Z,101323.13
2022-11-29T05:24:20.242Z,101313.47
2022-11-29T05:26:56.251Z,101323.31
2022-11-29T05:29:31.780Z,101325.91
2022-11-29T05:32:23.111Z,101331.25
2022-11-29T05:35:13.845Z,101335.66
2022-11-29T05:37:49.935Z,101336.50
2022-11-29T05:40:44.995Z,101338.28
2022-11-29T05:43:32.787Z,101339.97
2022-11-29T05:46:05.498Z,101344.50
2022-11-29T05:48:45.151Z,101348.09
2022-11-29T05:51:22.254Z,101343.66
2022-11-29T05:54:00.343Z,101349.78
2022-11-29T05:56:41.695Z,101341.75
2022-11-29T05:59:13.888Z,101346.97
2022-11-29T06:01:53.010Z,101353.09
2022-11-29T06:04:28.641Z,101354.91
2022-11-29T06:07:05.424Z,101350.53
2022-11-29T06:09:39.851Z,101353.19
2022-11-29T06:12:19.531Z,101356.66
2022-11-29T06:15:17.186Z,101358.56
2022-11-29T06:18:01.446Z,101369.03
2022-11-29T06:20:52.974Z,101362.78
2022-11-29T06:23:48.348Z,101366.25
2022-11-29T06:26:30.846Z,101374.97
2022-11-29T06:29:06.592Z,101376.69
2022-11-29T06:31:40.546Z,101375.81
2022-11-29T06:34:15.444Z,101385.41
2022-11-29T06:36:48.880Z,101387.22
2022-11-29T06:39:19.164Z,101399.53
2022-11-29T06:41:47.186Z,101397.72
2022-11-29T06:44:15.829Z,101399.56
2022-11-29T06:46:47.783Z,101407.44
2022-11-29T06:49:23.816Z,101409.16
2022-11-29T06:52:01.770Z,101412.69
2022-11-29T06:54:51.350Z,101395.06
2022-11-29T06:57:25.731Z,101413.59
2022-11-29T07:00:04.709Z,101410.94
2022-11-29T07:02:58.500Z,101421.47
2022-11-29T07:05:29.856Z,101416.22
2022-11-29T07:08:01.828Z,101418.88
2022-11-29T07:10:34.217Z,101428.50
2022-11-29T07:13:02.755Z,101423.31
2022-11-29T07:15:31.423Z,101427.63
2022-11-29T07:18:19.055Z,101427.59
2022-11-29T07:20:59.932Z,101432.03
2022-11-29T07:23:35.971Z,101439.00
2022-11-29T07:26:17.984Z,101436.41
2022-11-29T07:29:03.858Z,101439.84
2022-11-29T07:31:41.013Z,101438.16
2022-11-29T07:34:18.227Z,101441.66
2022-11-29T07:36:55.217Z,101449.56
2022-11-29T07:39:36.303Z,101445.22
2022-11-29T07:42:14.307Z,101446.97
2022-11-29T07:44:53.353Z,101448.72
2022-11-29T07:47:21.306Z,101451.38
2022-11-29T07:49:49.265Z,101448.75
2022-11-29T07:52:18.133Z,101449.59
2022-11-29T07:54:46.373Z,101460.16
2022-11-29T07:57:15.975Z,101455.75
2022-11-29T07:59:44.216Z,101461.06
2022-11-29T08:02:12.746Z,101458.41
2022-11-29T08:04:44.707Z,101465.50
2022-11-29T08:07:12.945Z,101469.03
2022-11-29T08:09:40.863Z,101474.28
2022-11-29T08:12:08.881Z,101473.44
2022-11-29T08:14:38.276Z,101479.59
2022-11-29T08:17:06.394Z,101473.47
2022-11-29T08:19:34.484Z,101471.72
2022-11-29T08:22:02.482Z,101463.84
2022-11-29T08:24:30.477Z,101469.16
2022-11-29T08:26:58.501Z,101467.38
2022-11-29T08:29:26.500Z,101477.97
2022-11-29T08:31:56.014Z,101470.91
2022-11-29T08:34:25.438Z,101471.84
2022-11-29T08:36:56.415Z,101464.78
2022-11-29T08:39:25.041Z,101476.25
2022-11-29T08:41:53.025Z,101473.59
2022-11-29T08:44:20.979Z,101471.03
2022-11-29T08:47:06.491Z,101477.16
2022-11-29T08:49:35.835Z,101485.09
2022-11-29T08:52:21.303Z,101476.31
2022-11-29T08:54:49.249Z,101480.72
2022-11-29T08:57:39.395Z,101489.50
2022-11-29T09:00:07.263Z,101489.50
2022-11-29T09:02:36.727Z,101493.00
2022-11-29T09:05:07.472Z,101485.94
2022-11-29T09:07:35.754Z,101495.63
2022-11-29T09:10:05.542Z,101489.47
2022-11-29T09:12:33.642Z,101493.91
2022-11-29T09:15:01.658Z,101495.75
2022-11-29T09:17:29.680Z,101493.94
2022-11-29T09:19:57.623Z,101501.06
2022-11-29T09:22:26.951Z,101504.53
2022-11-29T09:24:54.945Z,101502.75
2022-11-29T09:27:22.908Z,101501.88
2022-11-29T09:29:50.834Z,101510.66
2022-11-29T09:32:18.825Z,101510.66
2022-11-29T09:34:47.137Z,101509.88
2022-11-29T09:37:15.250Z,101514.25
2022-11-29T09:39:44.570Z,101519.53
2022-11-29T09:42:23.902Z,101519.50
2022-11-29T09:45:02.064Z,101519.53
2022-11-29T09:47:49.146Z,101524.03
2022-11-29T09:50:29.227Z,101526.66
2022-11-29T09:53:11.119Z,101522.19
2022-11-29T09:56:05.759Z,101524.88
2022-11-29T09:58:40.496Z,101530.13
2022-11-29T10:01:14.265Z,101532.81
2022-11-29T10:03:46.979Z,101537.25
2022-11-29T10:06:22.750Z,101543.47
2022-11-29T10:08:57.167Z,101538.16
2022-11-29T10:11:31.327Z,101540.78
2022-11-29T10:14:03.996Z,101542.56
2022-11-29T10:16:42.318Z,101546.09
2022-11-29T10:19:18.395Z,101541.69
2022-11-29T10:21:55.240Z,101549.59
2022-11-29T10:24:25.745Z,101546.06
2022-11-29T10:26:55.215Z,101546.97
2022-11-29T10:29:24.360Z,101544.28
2022-11-29T10:31:56.743Z,101545.13
2022-11-29T10:34:27.477Z,101543.38
2022-11-29T10:36:59.406Z,101550.44
2022-11-29T10:39:35.689Z,101549.56
2022-11-29T10:42:06.499Z,101547.81
2022-11-29T10:44:35.015Z,101550.47
2022-11-29T10:47:10.787Z,101552.28
2022-11-29T10:49:40.295Z,101549.63
2022-11-29T10:52:19.239Z,101540.00
2022-11-29T10:54:48.453Z,101546.16
2022-11-29T10:57:20.930Z,101540.84
2022-11-29T11:00:01.062Z,101544.38
2022-11-29T11:02:29.691Z,101537.41
2022-11-29T11:04:59.116Z,101538.25
2022-11-29T11:07:31.103Z,101547.09
2022-11-29T11:10:00.139Z,101537.41
2022-11-29T11:12:32.302Z,101534.78
2022-11-29T11:15:17.200Z,101533.94
2022-11-29T11:17:58.605Z,101535.69
2022-11-29T11:20:30.089Z,101535.63
2022-11-29T11:23:01.396Z,101549.81
2022-11-29T11:25:31.297Z,101548.91
2022-11-29T11:28:15.316Z,101555.94
2022-11-29T11:30:51.402Z,101551.56
2022-11-29T11:33:21.776Z,101554.22
2022-11-29T11:36:05.216Z,101555.09
2022-11-29T11:38:34.291Z,101555.06
2022-11-29T11:41:06.434Z,101555.06
2022-11-29T11:43:36.012Z,101555.09
2022-11-29T11:46:06.770Z,101560.41
2022-11-29T11:48:36.550Z,101556.91
2022-11-29T11:51:04.799Z,101556.88
2022-11-29T11:53:36.648Z,101552.47
2022-11-29T11:56:06.839Z,101553.28
2022-11-29T11:58:39.200Z,101556.88
2022-11-29T12:01:17.709Z,101561.31
2022-11-29T12:03:51.693Z,101563.03
2022-11-29T12:06:36.915Z,101555.09
2022-11-29T12:09:10.952Z,101550.66
2022-11-29T12:11:45.088Z,101559.53
2022-11-29T12:14:25.138Z,101559.50
2022-11-29T12:17:03.462Z,101565.66
2022-11-29T12:19:40.603Z,101565.66
2022-11-29T12:22:17.389Z,101561.28
2022-11-29T12:24:53.594Z,101564.00
2022-11-29T12:27:21.614Z,101567.56
2022-11-29T12:29:50.980Z,101568.44
2022-11-29T12:32:33.947Z,101575.41
2022-11-29T12:35:20.795Z,101573.69
2022-11-29T12:37:57.438Z,101578.06
2022-11-29T12:40:34.856Z,101580.78
2022-11-29T12:43:12.696Z,101586.00
2022-11-29T12:45:50.101Z,101544.38
2022-11-29T12:48:29.931Z,101594.81
2022-11-29T12:51:05.940Z,101588.59
2022-11-29T12:53:48.445Z,101585.97
2022-11-29T12:56:24.395Z,101589.47
2022-11-29T12:59:02.150Z,101595.56
2022-11-29T13:01:40.664Z,101594.66
2022-11-29T13:04:17.105Z,101602.63
2022-11-29T13:06:53.953Z,101593.84
2022-11-29T13:09:51.662Z,101598.22
2022-11-29T13:12:28.416Z,101595.59
2022-11-29T13:15:02.736Z,101600.03
2022-11-29T13:17:40.969Z,101601.75
2022-11-29T13:20:23.928Z,101598.28
2022-11-29T13:22:58.468Z,101605.28
2022-11-29T13:25:31.825Z,101605.25
2022-11-29T13:28:02.841Z,101605.28
2022-11-29T13:30:31.326Z,101608.84
2022-11-29T13:33:06.943Z,101609.63
2022-11-29T13:35:43.120Z,101615.81
2022-11-29T13:38:18.067Z,101612.22
2022-11-29T13:40:56.005Z,101614.00
2022-11-29T13:43:31.073Z,101614.88
2022-11-29T13:46:08.694Z,101609.59
2022-11-29T13:48:48.811Z,101610.53
2022-11-29T13:51:27.239Z,101611.44
2022-11-29T13:53:57.171Z,101614.06
2022-11-29T13:56:32.874Z,101615.81
2022-11-29T13:59:04.567Z,101611.34
2022-11-29T14:01:44.834Z,101618.38
2022-11-29T14:04:26.331Z,101626.28
2022-11-29T14:07:05.130Z,101629.88
2022-11-29T14:09:40.700Z,101628.06
2022-11-29T14:12:26.958Z,101628.06
2022-11-29T14:14:59.283Z,101629.84
2022-11-29T14:17:48.565Z,101603.28
2022-11-29T14:20:49.056Z,101622.75
2022-11-29T14:23:32.445Z,101623.63
2022-11-29T14:26:28.820Z,101629.81
2022-11-29T14:28:58.212Z,101631.56
2022-11-29T14:31:56.103Z,101629.81
2022-11-29T14:34:43.256Z,101612.97
2022-11-29T14:37:53.282Z,101635.09
2022-11-29T14:40:30.036Z,101638.63
2022-11-29T14:42:58.317Z,101638.59
2022-11-29T14:45:29.606Z,101634.16
2022-11-29T14:47:58.934Z,101640.31
2022-11-29T14:50:33.601Z,101626.13
2022-11-29T14:53:02.452Z,101643.88
2022-11-29T14:55:35.555Z,101637.66
2022-11-29T14:58:17.862Z,101641.22
2022-11-29T15:01:10.678Z,101642.09
2022-11-29T15:03:49.636Z,101644.75
2022-11-29T15:06:27.118Z,101637.72
2022-11-29T15:09:02.548Z,101640.25
2022-11-29T15:11:41.203Z,101642.00
2022-11-29T15:14:19.862Z,101623.41
2022-11-29T15:17:06.639Z,101645.53
2022-11-29T15:20:13.659Z,101649.94
2022-11-29T15:22:48.950Z,101657.84
2022-11-29T15:25:20.689Z,101653.44
2022-11-29T15:27:54.910Z,101661.38
2022-11-29T15:30:31.453Z,101653.44
2022-11-29T15:33:00.946Z,101660.50
2022-11-29T15:35:29.312Z,101668.44
2022-11-29T15:37:57.642Z,101665.75
2022-11-29T15:40:33.055Z,101669.25
2022-11-29T15:43:14.953Z,101670.13
2022-11-29T15:45:48.344Z,101664.81
2022-11-29T15:48:21.890Z,101674.53
2022-11-29T15:50:59.815Z,101671.84
2022-11-29T15:53:32.818Z,101671.91
2022-11-29T15:56:03.387Z,101673.59
2022-11-29T15:58:34.843Z,101679.78
2022-11-29T16:01:04.095Z,101680.69
2022-11-29T16:03:35.044Z,101686.88
2022-11-29T16:06:09.464Z,101692.16
2022-11-29T16:08:43.151Z,101693.91
2022-11-29T16:11:17.592Z,101704.44
2022-11-29T16:14:05.045Z,101693.91
2022-11-29T16:16:35.419Z,101694.81
2022-11-29T16:19:11.579Z,101705.31
2022-11-29T16:21:39.643Z,101703.56
2022-11-29T16:24:20.512Z,101703.56
2022-11-29T16:26:51.154Z,101707.09
2022-11-29T16:29:28.255Z,101708.00
2022-11-29T16:31:56.746Z,101711.44
2022-11-29T16:34:28.079Z,101714.19
2022-11-29T16:37:04.059Z,101715.94
2022-11-29T16:39:32.551Z,101717.69
2022-11-29T16:42:08.762Z,101716.84
2022-11-29T16:45:12.016Z,101722.97
2022-11-29T16:47:57.963Z,101716.84
2022-11-29T16:50:27.385Z,101716.81
2022-11-29T16:52:57.067Z,101726.50
2022-11-29T16:55:25.626Z,101727.41
2022-11-29T16:57:53.661Z,101723.88
2022-11-29T17:00:30.474Z,101722.97
2022-11-29T17:03:00.503Z,101731.81
2022-11-29T17:05:28.757Z,101731.78
2022-11-29T17:07:57.104Z,101722.03
2022-11-29T17:10:26.648Z,101731.72
2022-11-29T17:12:55.065Z,101722.88
2022-11-29T17:15:23.347Z,101741.41
2022-11-29T17:17:51.337Z,101744.06
2022-11-29T17:20:20.733Z,101744.94
2022-11-29T17:22:48.734Z,101747.47
2022-11-29T17:25:16.867Z,101749.28
2022-11-29T17:27:44.852Z,101750.19
2022-11-29T17:30:13.991Z,101755.47
2022-11-29T17:32:41.906Z,101756.38
2022-11-29T17:35:10.325Z,101758.13
2022-11-29T17:37:39.680Z,101756.38
2022-11-29T17:40:09.282Z,101759.84
2022-11-29T17:42:37.190Z,101767.75
2022-11-29T17:45:05.672Z,101768.66
2022-11-29T17:47:34.335Z,101770.44
2022-11-29T17:50:02.321Z,101773.94
2022-11-29T17:52:30.331Z,101772.13
2022-11-29T17:54:59.695Z,101777.50
2022-11-29T17:57:27.722Z,101776.56
2022-11-29T17:59:55.779Z,101779.19
2022-11-29T18:02:23.880Z,101784.47
2022-11-29T18:04:51.928Z,101761.53
2022-11-29T18:07:19.989Z,101783.66
2022-11-29T18:09:49.043Z,101799.50
2022-11-29T18:12:20.035Z,101799.44
2022-11-29T18:14:50.122Z,101795.94
2022-11-29T18:17:18.104Z,101801.25
2022-11-29T18:19:46.416Z,101805.59
2022-11-29T18:22:14.954Z,101796.81
2022-11-29T18:24:44.143Z,101818.81
2022-11-29T18:27:12.204Z,101809.16
2022-11-29T18:29:41.627Z,101814.38
2022-11-29T18:32:09.724Z,101811.78
2022-11-29T18:34:37.655Z,101815.34
2022-11-29T18:37:05.604Z,101807.41
2022-11-29T18:39:33.592Z,101816.28
2022-11-29T18:42:01.650Z,101809.19
2022-11-29T18:44:30.239Z,101812.66
2022-11-29T18:46:59.554Z,101813.53
2022-11-29T18:49:27.600Z,101808.28
2022-11-29T18:51:55.541Z,101810.06
2022-11-29T18:54:23.506Z,101817.09
2022-11-29T18:56:51.820Z,101819.72
2022-11-29T18:59:19.861Z,101826.75
2022-11-29T19:01:49.032Z,101815.28
2022-11-29T19:04:20.165Z,101820.56
2022-11-29T19:06:48.647Z,101830.28
2022-11-29T19:09:19.196Z,101819.72
2022-11-29T19:11:48.638Z,101820.59
2022-11-29T19:14:16.639Z,101824.94
2022-11-29T19:16:46.237Z,101819.72
2022-11-29T19:19:14.602Z,101830.31
2022-11-29T19:21:43.997Z,101828.47
2022-11-29T19:24:17.773Z,101831.13
2022-11-29T19:26:47.189Z,101824.09
2022-11-29T19:29:15.584Z,101831.13
2022-11-29T19:31:43.992Z,101821.34
2022-11-29T19:34:12.334Z,101823.16
2022-11-29T19:36:42.980Z,101829.31
2022-11-29T19:39:14.307Z,101831.09
2022-11-29T19:41:43.710Z,101831.13
2022-11-29T19:44:12.489Z,101832.81
2022-11-29T19:46:42.181Z,101824.88
2022-11-29T19:49:10.539Z,101828.41
2022-11-29T19:51:39.140Z,101834.56
2022-11-29T19:54:08.844Z,101829.25
2022-11-29T19:56:39.299Z,101843.44
2022-11-29T19:59:08.827Z,101843.38
2022-11-29T20:01:41.384Z,101842.47
2022-11-29T20:04:11.862Z,101843.38
2022-11-29T20:06:40.469Z,101842.50
2022-11-29T20:09:08.578Z,101830.94
2022-11-29T20:11:37.979Z,101840.72
2022-11-29T20:14:07.990Z,101843.38
2022-11-29T20:16:36.641Z,101842.47
2022-11-29T20:19:09.604Z,101837.16
2022-11-29T20:21:42.177Z,101842.44
2022-11-29T20:24:11.428Z,101840.66
2022-11-29T20:26:42.195Z,101844.19
2022-11-29T20:29:11.155Z,101841.63
2022-11-29T20:31:45.967Z,101842.44
2022-11-29T20:34:17.562Z,101853.91
2022-11-29T20:37:06.743Z,101861.00
2022-11-29T20:39:42.691Z,101853.97
2022-11-29T20:42:46.687Z,101859.28
2022-11-29T20:45:16.439Z,101854.84
2022-11-29T20:47:51.918Z,101858.41
2022-11-29T20:50:23.694Z,101860.19
2022-11-29T20:53:12.896Z,101863.63
2022-11-29T20:55:46.458Z,101861.00
2022-11-29T20:58:18.318Z,101866.28
2022-11-29T21:00:46.489Z,101857.41
2022-11-29T21:03:15.238Z,101868.09
2022-11-29T21:05:43.282Z,101864.50
2022-11-29T21:08:11.345Z,101865.44
2022-11-29T21:10:39.436Z,101865.38
2022-11-29T21:13:08.663Z,101862.69
2022-11-29T21:15:38.785Z,101849.47
2022-11-29T21:18:07.358Z,101859.19
2022-11-29T21:20:35.709Z,101861.81
2022-11-29T21:23:09.858Z,101863.53
2022-11-29T21:25:45.192Z,101861.75
2022-11-29T21:28:15.123Z,101865.25
2022-11-29T21:30:45.499Z,101866.06
2022-11-29T21:33:13.931Z,101862.63
2022-11-29T21:35:42.087Z,101858.19
2022-11-29T21:38:14.303Z,101857.34
2022-11-29T21:40:42.365Z,101861.78
2022-11-29T21:43:10.399Z,101868.84
2022-11-29T21:45:38.370Z,101872.28
2022-11-29T21:48:28.575Z,101871.44
2022-11-29T21:50:57.596Z,101875.78
2022-11-29T21:53:25.545Z,101874.94
2022-11-29T21:55:57.237Z,101878.44
2022-11-29T21:58:25.351Z,101887.22
2022-11-29T22:00:53.441Z,101883.72
2022-11-29T22:03:22.884Z,101886.41
2022-11-29T22:05:50.840Z,101887.28
2022-11-29T22:08:19.142Z,101890.78
2022-11-29T22:10:47.129Z,101892.50
2022-11-29T22:13:15.071Z,101896.03
2022-11-29T22:15:43.067Z,101896.84
2022-11-29T22:18:11.453Z,101894.28
2022-11-29T22:20:40.793Z,101902.25
2022-11-29T22:23:08.801Z,101896.13
2022-11-29T22:25:36.741Z,101904.03
2022-11-29T22:28:04.751Z,101900.50
2022-11-29T22:30:32.711Z,101894.31
2022-11-29T22:33:00.682Z,101892.59
2022-11-29T22:35:28.759Z,101896.06
2022-11-29T22:37:58.063Z,101902.16
2022-11-29T22:40:26.060Z,101900.50
2022-11-29T22:42:54.052Z,101901.34
2022-11-29T22:45:22.225Z,101895.16
2022-11-29T22:47:50.201Z,101905.78
2022-11-29T22:50:18.208Z,101900.53
2022-11-29T22:52:46.132Z,101899.56
2022-11-29T22:55:15.481Z,101906.63
2022-11-29T22:57:43.459Z,101908.31
2022-11-29T23:00:13.579Z,101910.13
2022-11-29T23:02:41.504Z,101917.22
2022-11-29T23:05:09.728Z,101919.81
2022-11-29T23:07:37.797Z,101923.34
2022-11-29T23:10:06.666Z,101922.44
2022-11-29T23:12:36.086Z,101916.25
2022-11-29T23:15:04.642Z,101918.91
2022-11-29T23:17:32.647Z,101924.16
2022-11-29T23:20:00.648Z,101908.31
2022-11-29T23:22:28.566Z,101911.03
2022-11-29T23:24:56.529Z,101915.44
2022-11-29T23:27:24.534Z,101917.22
2022-11-29T23:29:54.116Z,101909.28
2022-11-29T23:32:22.046Z,101910.94
2022-11-29T23:34:50.061Z,101921.53
2022-11-29T23:37:18.028Z,101906.47
2022-11-29T23:39:46.031Z,101920.69
2022-11-29T23:42:14.036Z,101909.28
2022-11-29T23:44:41.947Z,101910.06
2022-11-29T23:47:11.289Z,101911.91
2022-11-29T23:49:39.884Z,101912.75
2022-11-29T23:52:07.904Z,101904.78
2022-11-29T23:54:35.848Z,101910.16
2022-11-29T23:57:03.844Z,101906.63
2022-11-29T23:59:31.827Z,101912.78
